Saint Francisville, Missouri
Current Conditions -  °F | °C
As of 9:35 AM on Monday 22 Dec 2014 (Local Time) from KEOK Reporting Station
Haze Haze  
Wind Chill: 31°   Ceiling: 600
Heat Index: 37°   Visibility: 2mi
Dew Point: 37°   Wind: 8mph
Humidity: 100%   Direction: 120°ESE
Pressure: 29.69"   Gusts: NA
Location:  40.3208°N, 91.5406°W
Report Text: KEOK 221535Z AUTO 12007KT 2SM BR OVC006 03/03 A2969 RMK AO2
Loading
Personal Weather Stations






























Interactive Weather Map New forecast layout! Learn more

10-Day Weather Forecast

Advertisements
Track Severe Weather on mobile